createdAt,value
2022-10-23T00:04:30.866Z,19.20
2022-10-23T00:14:34.683Z,19.30
2022-10-23T00:24:39.862Z,19.30
2022-10-23T00:34:43.581Z,19.10
2022-10-23T00:45:19.109Z,19.10
2022-10-23T00:55:24.775Z,19.10
2022-10-23T01:05:52.642Z,18.90
2022-10-23T01:16:04.305Z,18.90
2022-10-23T01:26:28.463Z,19.00
2022-10-23T01:36:36.173Z,18.90
2022-10-23T01:46:41.025Z,18.90
2022-10-23T01:56:50.117Z,18.80
2022-10-23T02:06:53.953Z,18.80
2022-10-23T02:17:07.202Z,18.90
2022-10-23T02:27:15.320Z,18.70
2022-10-23T02:47:48.300Z,18.60
2022-10-23T02:57:58.136Z,18.60
2022-10-23T03:08:04.474Z,18.50
2022-10-23T03:18:09.582Z,18.80
2022-10-23T03:28:13.451Z,19.10
2022-10-23T03:38:18.784Z,19.40
2022-10-23T03:48:24.386Z,19.80
2022-10-23T03:58:29.428Z,19.90
2022-10-23T04:08:33.154Z,19.70
2022-10-23T04:18:38.365Z,19.40
2022-10-23T04:28:42.862Z,19.60
2022-10-23T04:38:48.203Z,20.00
2022-10-23T04:48:52.207Z,20.30
2022-10-23T04:58:57.343Z,20.80
2022-10-23T05:09:01.173Z,20.60
2022-10-23T05:19:07.710Z,20.90
2022-10-23T05:29:11.524Z,20.70
2022-10-23T05:39:17.115Z,20.70
2022-10-23T05:49:20.908Z,20.70
2022-10-23T05:59:26.436Z,20.40
2022-10-23T06:09:30.496Z,20.00
2022-10-23T06:19:35.668Z,19.90
2022-10-23T06:29:39.470Z,19.70
2022-10-23T06:39:44.672Z,19.60
2022-10-23T06:49:48.425Z,19.80
2022-10-23T06:59:53.790Z,19.80
2022-10-23T07:09:57.606Z,20.10
2022-10-23T07:20:02.818Z,20.30
2022-10-23T07:30:07.259Z,20.70
2022-10-23T07:40:13.234Z,21.40
2022-10-23T07:50:16.996Z,22.00
2022-10-23T08:10:31.666Z,23.50
2022-10-23T08:20:40.091Z,23.80
2022-10-23T08:30:43.844Z,23.90
2022-10-23T08:40:50.736Z,24.20
2022-10-23T08:50:59.631Z,24.60
2022-10-23T09:01:19.980Z,24.90
2022-10-23T09:11:29.278Z,24.90
2022-10-23T09:21:34.737Z,25.40
2022-10-23T09:31:50.232Z,25.70
2022-10-23T09:41:57.023Z,24.90
2022-10-23T09:52:06.329Z,25.00
2022-10-23T10:02:24.731Z,25.20
2022-10-23T10:12:46.318Z,25.50
2022-10-23T10:22:56.693Z,25.10
2022-10-23T10:33:04.470Z,24.60
2022-10-23T10:43:25.870Z,24.30
2022-10-23T10:53:42.469Z,24.50
2022-10-23T11:03:53.720Z,24.80
2022-10-23T11:13:57.928Z,24.50
2022-10-23T11:24:26.425Z,24.70
2022-10-23T11:35:03.374Z,24.50
2022-10-23T11:45:33.996Z,24.80
2022-10-23T11:55:38.578Z,25.00
2022-10-23T12:05:46.192Z,25.50
2022-10-23T12:15:58.509Z,25.60
2022-10-23T12:26:30.416Z,24.80
2022-10-23T12:36:51.905Z,24.50
2022-10-23T12:46:59.708Z,24.70
2022-10-23T12:57:03.452Z,24.80
2022-10-23T13:07:08.754Z,25.10
2022-10-23T13:17:13.568Z,25.10
2022-10-23T13:27:36.114Z,25.90
2022-10-23T13:37:40.017Z,26.40
2022-10-23T13:47:45.587Z,26.70
2022-10-23T13:57:49.580Z,27.80
2022-10-23T14:07:55.020Z,27.90
2022-10-23T14:18:00.094Z,26.70
2022-10-23T14:28:06.996Z,26.20
2022-10-23T14:38:10.957Z,25.80
2022-10-23T14:48:16.058Z,25.30
2022-10-23T14:58:23.666Z,24.80
2022-10-23T15:08:29.059Z,24.80
2022-10-23T15:18:32.951Z,24.80
2022-10-23T15:28:38.129Z,25.10
2022-10-23T15:38:42.087Z,24.80
2022-10-23T15:48:47.227Z,24.40
2022-10-23T15:58:50.949Z,24.00
2022-10-23T16:08:56.456Z,24.00
2022-10-23T16:19:01.302Z,24.00
2022-10-23T16:29:08.029Z,23.70
2022-10-23T16:39:13.377Z,23.50
2022-10-23T16:49:18.550Z,23.40
2022-10-23T16:59:22.189Z,23.40
2022-10-23T17:09:31.595Z,23.00
2022-10-23T17:19:51.061Z,22.90
2022-10-23T17:29:56.328Z,22.80
2022-10-23T17:40:02.753Z,22.80
2022-10-23T17:50:09.785Z,22.90
2022-10-23T18:00:14.147Z,22.90
2022-10-23T18:10:19.327Z,22.70
2022-10-23T18:20:23.055Z,22.60
2022-10-23T18:30:28.221Z,22.80
2022-10-23T18:40:32.233Z,22.70
2022-10-23T18:50:39.035Z,22.60
2022-10-23T19:00:43.016Z,22.00
2022-10-23T19:10:48.708Z,21.70
2022-10-23T19:20:52.515Z,21.70
2022-10-23T19:30:57.802Z,21.30
2022-10-23T19:41:01.773Z,21.40
2022-10-23T19:51:09.105Z,21.30
2022-10-23T20:01:15.429Z,21.30
2022-10-23T20:11:23.198Z,21.10
2022-10-23T20:21:27.174Z,21.00
2022-10-23T20:31:32.508Z,20.80
2022-10-23T20:41:37.502Z,20.80
2022-10-23T20:51:43.222Z,20.50
2022-10-23T21:01:49.764Z,20.50
2022-10-23T21:11:54.941Z,20.20
2022-10-23T21:21:58.761Z,20.10
2022-10-23T21:32:03.920Z,19.90
2022-10-23T21:42:07.689Z,19.80
2022-10-23T21:52:15.031Z,19.80
2022-10-23T22:02:21.547Z,19.80
2022-10-23T22:12:26.777Z,19.50
2022-10-23T22:22:30.652Z,19.80
2022-10-23T22:32:36.576Z,19.80
2022-10-23T22:42:40.328Z,20.50
2022-10-23T22:52:45.735Z,20.70
2022-10-23T23:02:50.130Z,20.70
2022-10-23T23:12:55.625Z,21.00
2022-10-23T23:22:59.438Z,21.60
2022-10-23T23:33:04.577Z,21.80
2022-10-23T23:43:08.549Z,21.30
2022-10-23T23:53:13.666Z,21.00
